Share

Accra, Ghana

Kotoka International (DGAA) Elev 226 ft | 5.61 °N, 0.17 °W | Change Station

Current weather conditions updated 1 hour ago

Partly Cloudy
Partly Cloudy
86 °F
Feels Like 97 °F
N
9
Wind Variable Wind from ESE
Sunrise 5:52 AM
Sunset 6:07 PM
Moon Waning Gibbous

Tomorrow is forecast to be Cooler than today.

Pressure 29.77 in
Visibility 6.2 miles
Clouds Few 4500 ft
Few 3000 ft
Heat Index 97 °F
Dew Point 77 °F
Humidity 74%
Rainfall 0.00 in
Snow Depth Not available.
UV 1 out of 16
Pollen Not available.
Air Quality Not available.
Flu Activity Not available.
METAR DGAA 181657Z 11008KT 080V140 9999 FEW045 FEW030CB 30/25 Q1008 NOSIG

More Conditions Fewer Conditions

Pressure 29.77 in
Visibility 6.2 miles
Clouds Few 4500 ft
Few 3000 ft
Heat Index 97 °F
Dew Point 77 °F
Humidity 74%
Rainfall 0.00 in
Snow Depth Not available.
UV 1 out of 16
Pollen Not available.
Air Quality Not available.
Flu Activity Not available.
METAR DGAA 181657Z 11008KT 080V140 9999 FEW045 FEW030CB 30/25 Q1008 NOSIG

More Conditions Fewer Conditions

10-Day Weather Forecast

Almanac

Astronomy

Apr. 18, 2014 Rise Set
Actual Time 5:52 AM GMT 6:07 PM GMT
Civil Twilight 5:31 AM GMT 6:28 PM GMT
Nautical Twilight 5:06 AM GMT 6:53 PM GMT
Astronomical Twilight 4:41 AM GMT 7:18 PM GMT
Moon 9:11 PM GMT 8:26 AM GMT
Length of Visible Light 12h 57m
Length of Day
12h 15m
Tomorrow will be 0m 17s longer.
Waning Gibbous, 86% of the Moon is Illuminated
Today
Waning Gibbous
Apr 22
Last Quarter
Apr 29
New
May 6
First Quarter
May 14
Full

Today's Extremes

Country Highs Country Lows

Community

  • What's for Lunch?
    What's for Lunch?
  • SUNRISE THROUGH THE TREES.
    SUNRISE THROUGH THE TREES.
  • Dog Wood Blossoms
    Dog Wood Blossoms
  • Morning Light
    Morning Light
  • New Day
    New Day

WunderPhotos

Upload Photos

1,702,443 photos uploaded!

Nearby

Snow Depth

Not available.

Coastal Water Temperatures

Place Temperature
No Stations Reporting

Earthquake Activity

City Distance Mag. Time & Date
No recent earthquake activity has been reported nearby.
Minimum magnitude displayed is 2.5.

Nearby Weather Stations

There are no personal weather stations in this area.

What do you think?

We're not finished. Please let us know what you like, what you don't like, and what you are still missing.